Terminal Aerodrome Forecast
Issued by NWS Upton, NY

Current Version | Previous Version | Text Only | Print | Product List | Glossary On
Versions: 1 2 3 4 5 6 7 8 9 10 11 12 13 14 15 16 17 18 19 20 21 22 23 24 25
000 FTUS41 KOKX 040240 AAA TAFJFK TAF AMD KJFK 040240Z 0403/0506 VRB04KT P6SM SCT050 BKN200 FM041100 05010KT P6SM BKN025 FM041500 06013G20KT P6SM BKN030 FM042100 08015G20KT P6SM BKN040 FM050200 08014KT P6SM FEW040=

USA.gov is the U.S. government's official web portal to all federal, state and local government web resources and services.